Airfield :
LOGIN :

Register | Disclaimer

   EN    FR    IT 

 










Legend :    VFR   Marginal VFR   IFR   Intensive IFR   Very Intensive IFR
Visi :
Ceiling :
>= 8 km
>= 3000ft
5 to 8 km
1000 to 3000 ft
1500m to 5 km
500 to 1000 ft
800 to 1500m
200 to 500 ft
< 800m
< 200 ft
Symbols :   Thunderstorms  Fog  Heavy snow  Heavy precipitations  Wind > 20 kt
SIGMETs :     Misc.  Thunderstorms  Icing  Turbulence  Mountain Waves  Volcanic Ashes






- Airport Elevation : 29 ft
- IATA code : SVG


ENZV - Sola

CURRENT METAR :
  • 151220Z 01006KT CAVOK 06/02 Q1019 NOSIG

EXPIRED METARs :
  • 151150Z 01005KT CAVOK 06/02 Q1019 NOSIG
  • 151120Z 01005KT CAVOK 05/01 Q1019 NOSIG
  • 151050Z 01003KT 320V040 9999 FEW048 06/00 Q1019 NOSIG
  • 151020Z VRB02KT 9999 FEW048 05/00 Q1019 NOSIG
  • 150950Z 04005KT 020V080 9999 FEW048 SCT140 05/M00 Q1019 NOSIG

TAF TAF ENZV
Valid from the 15 at 12:00 until the 16 at 12:00 UTC


1512/1612 04005KT 9999 FEW050



MET'MAP, your aeronautical weather chart ! - Copyright ORBIFLY December 2007 - Disclaimer

ORBIFLY MET'MAP TEAM :

Programming & Development : Alexandra Zaïnal
Concept & Development : Baudouin d'Aumeries
Co-Development & Prog : Marc-Olivier Méhu
Technical & hardware support : Manuel Goepfert

Contact : metmap@orbifly.com




SOURCES & CREDITS :

   NOAA